Time;durP1;ratioP1;P1;durP2;ratioP2;P2;SDS_P1;SDS_P2;PMS_P1;PMS_P2;Temp;Humidity;BMP_temperature;BMP_pressure;BME280_temperature;BME280_humidity;BME280_pressure;Samples;Min_cycle;Max_cycle;Signal;HPM_P1;HPM_P2
2020/12/28 00:00:53;;;;;;;0.63;0.60;;;;;;;;;;5107170;28;20023;-70
2020/12/28 00:03:19;;;;;;;2.22;0.98;;;;;;;;;;5110386;28;20058;-70
2020/12/28 00:05:45;;;;;;;0.93;0.93;;;;;;;;;;5108565;28;20027;-70
2020/12/28 00:08:11;;;;;;;1.05;0.50;;;;;;;;;;5110836;28;20043;-70
2020/12/28 00:10:37;;;;;;;1.73;1.63;;;;;;;;;;5110806;28;20293;-70
2020/12/28 00:13:03;;;;;;;0.75;0.65;;;;;;;;;;5110279;28;20067;-70
2020/12/28 00:15:30;;;;;;;0.95;0.55;;;;;;;;;;5110327;28;20166;-70
2020/12/28 00:17:57;;;;;;;0.95;0.45;;;;;;;;;;5109587;28;20027;-70
2020/12/28 00:20:25;;;;;;;0.43;0.30;;;;;;;;;;5110717;28;20080;-70
2020/12/28 00:22:51;;;;;;;0.60;0.35;;;;;;;;;;5109073;28;20030;-70
2020/12/28 00:25:19;;;;;;;0.60;0.50;;;;;;;;;;5109920;28;20474;-70
2020/12/28 00:27:46;;;;;;;0.77;0.70;;;;;;;;;;5109722;28;20028;-70
2020/12/28 00:30:12;;;;;;;0.40;0.40;;;;;;;;;;5110198;28;20016;-70
2020/12/28 00:32:38;;;;;;;0.60;0.60;;;;;;;;;;5109658;28;20503;-70
2020/12/28 00:35:05;;;;;;;0.50;0.45;;;;;;;;;;5108701;28;20431;-70
2020/12/28 00:37:31;;;;;;;1.15;0.50;;;;;;;;;;5101963;28;20063;-70
2020/12/28 00:39:57;;;;;;;0.90;0.70;;;;;;;;;;5089162;28;20575;-70
2020/12/28 00:42:23;;;;;;;0.70;0.40;;;;;;;;;;5089722;28;20024;-70
2020/12/28 00:44:49;;;;;;;0.63;0.50;;;;;;;;;;5088383;28;20096;-70
2020/12/28 00:47:16;;;;;;;0.52;0.32;;;;;;;;;;5089215;28;20482;-70
2020/12/28 00:49:42;;;;;;;0.70;0.60;;;;;;;;;;5089478;28;20043;-70
2020/12/28 00:52:08;;;;;;;1.00;0.57;;;;;;;;;;5089493;28;20044;-70
2020/12/28 00:54:34;;;;;;;0.65;0.43;;;;;;;;;;5089245;28;20532;-70
2020/12/28 00:57:01;;;;;;;0.55;0.55;;;;;;;;;;5088138;28;20024;-70
2020/12/28 00:59:27;;;;;;;0.40;0.40;;;;;;;;;;5089453;28;20031;-70
2020/12/28 01:01:59;;;;;;;0.98;0.70;;;;;;;;;;5088331;28;20021;-70
2020/12/28 01:04:25;;;;;;;1.08;0.98;;;;;;;;;;5088789;28;20034;-70
2020/12/28 01:06:52;;;;;;;0.38;0.30;;;;;;;;;;5087650;28;20024;-70
2020/12/28 01:09:18;;;;;;;0.20;0.20;;;;;;;;;;5089414;28;20055;-70
2020/12/28 01:11:44;;;;;;;0.35;0.32;;;;;;;;;;5088339;28;20111;-70
2020/12/28 01:14:11;;;;;;;0.40;0.40;;;;;;;;;;5088562;28;20020;-70
2020/12/28 01:16:37;;;;;;;0.73;0.40;;;;;;;;;;5088435;28;20020;-70
2020/12/28 01:19:04;;;;;;;0.43;0.43;;;;;;;;;;5089176;28;20032;-70
2020/12/28 01:21:30;;;;;;;0.98;0.60;;;;;;;;;;5088725;28;20024;-70
2020/12/28 01:23:57;;;;;;;0.80;0.47;;;;;;;;;;5087839;28;20028;-70
2020/12/28 01:26:23;;;;;;;0.85;0.50;;;;;;;;;;5088527;28;20386;-70
2020/12/28 01:28:49;;;;;;;0.55;0.30;;;;;;;;;;5087930;28;20521;-70
2020/12/28 01:31:15;;;;;;;0.40;0.40;;;;;;;;;;5088688;28;20063;-70
2020/12/28 01:33:41;;;;;;;0.45;0.32;;;;;;;;;;5087342;28;20038;-70
2020/12/28 01:36:07;;;;;;;0.30;0.30;;;;;;;;;;5087345;28;20094;-70
2020/12/28 01:38:33;;;;;;;0.20;0.20;;;;;;;;;;5104473;28;20510;-70
2020/12/28 01:41:00;;;;;;;0.50;0.40;;;;;;;;;;5108309;28;20036;-70
2020/12/28 01:43:29;;;;;;;0.70;0.70;;;;;;;;;;5108119;28;20106;-70
2020/12/28 01:45:55;;;;;;;0.70;0.40;;;;;;;;;;5108121;28;20390;-70
2020/12/28 01:48:21;;;;;;;0.20;0.20;;;;;;;;;;5108874;28;20020;-70
2020/12/28 01:50:48;;;;;;;0.30;0.30;;;;;;;;;;5109106;28;20031;-70
2020/12/28 01:53:16;;;;;;;0.32;0.30;;;;;;;;;;5108172;28;20114;-70
2020/12/28 01:55:43;;;;;;;0.65;0.47;;;;;;;;;;5107803;28;20023;-70
2020/12/28 01:58:09;;;;;;;1.00;0.40;;;;;;;;;;5108514;28;20474;-70
2020/12/28 02:00:35;;;;;;;0.28;0.28;;;;;;;;;;5108625;28;20106;-70
2020/12/28 02:03:02;;;;;;;0.65;0.40;;;;;;;;;;5107504;28;20030;-70
2020/12/28 02:05:28;;;;;;;0.30;0.30;;;;;;;;;;5107062;28;20498;-70
2020/12/28 02:07:54;;;;;;;0.90;0.40;;;;;;;;;;5107423;28;20044;-70
2020/12/28 02:10:21;;;;;;;0.50;0.40;;;;;;;;;;5108440;28;20542;-70
2020/12/28 02:12:47;;;;;;;0.75;0.45;;;;;;;;;;5107196;28;20039;-70
2020/12/28 02:15:13;;;;;;;0.65;0.52;;;;;;;;;;5107764;28;20100;-70
2020/12/28 02:17:39;;;;;;;2.72;1.17;;;;;;;;;;5107593;28;20038;-70
2020/12/28 02:20:05;;;;;;;0.98;0.45;;;;;;;;;;5108073;28;20549;-70
2020/12/28 02:22:31;;;;;;;1.08;0.55;;;;;;;;;;5108010;28;20019;-70
2020/12/28 02:24:57;;;;;;;0.70;0.38;;;;;;;;;;5106730;28;20031;-70
2020/12/28 02:27:23;;;;;;;1.73;0.52;;;;;;;;;;5107528;28;20066;-70
2020/12/28 02:29:49;;;;;;;0.30;0.30;;;;;;;;;;5107444;28;20047;-70
2020/12/28 02:32:15;;;;;;;0.10;0.10;;;;;;;;;;5107348;28;20470;-70
2020/12/28 02:34:41;;;;;;;0.40;0.38;;;;;;;;;;5106926;28;20026;-70
2020/12/28 02:37:07;;;;;;;0.98;0.50;;;;;;;;;;5102009;28;20024;-70
2020/12/28 02:39:33;;;;;;;0.13;0.13;;;;;;;;;;5087571;28;20020;-70
2020/12/28 02:41:59;;;;;;;0.63;0.40;;;;;;;;;;5087113;28;20799;-70
2020/12/28 02:44:25;;;;;;;0.50;0.40;;;;;;;;;;5087088;28;20331;-70
2020/12/28 02:46:51;;;;;;;1.05;0.70;;;;;;;;;;5086448;28;20031;-70
2020/12/28 02:49:18;;;;;;;0.40;0.35;;;;;;;;;;5087637;28;20036;-70
2020/12/28 02:51:44;;;;;;;0.60;0.40;;;;;;;;;;5086618;28;20031;-70
2020/12/28 02:54:10;;;;;;;0.60;0.40;;;;;;;;;;5087257;28;20027;-70
2020/12/28 02:56:36;;;;;;;0.38;0.38;;;;;;;;;;5087025;28;20537;-70
2020/12/28 02:59:02;;;;;;;0.30;0.30;;;;;;;;;;5086263;28;20513;-70
2020/12/28 03:01:28;;;;;;;0.63;0.63;;;;;;;;;;5087533;28;20094;-70
2020/12/28 03:03:54;;;;;;;0.60;0.60;;;;;;;;;;5085949;28;20024;-70
2020/12/28 03:06:20;;;;;;;0.88;0.38;;;;;;;;;;5085470;28;20122;-70
2020/12/28 03:08:46;;;;;;;1.45;0.47;;;;;;;;;;5086202;28;20031;-70
2020/12/28 03:11:12;;;;;;;0.50;0.47;;;;;;;;;;5087344;28;20360;-70
2020/12/28 03:13:38;;;;;;;0.90;0.68;;;;;;;;;;5086314;28;20051;-70
2020/12/28 03:16:05;;;;;;;0.93;0.47;;;;;;;;;;5086501;28;20028;-70
2020/12/28 03:18:31;;;;;;;0.77;0.40;;;;;;;;;;5086725;28;20470;-70
2020/12/28 03:20:58;;;;;;;0.68;0.43;;;;;;;;;;5086502;28;20024;-70
2020/12/28 03:23:24;;;;;;;0.85;0.50;;;;;;;;;;5086175;28;20486;-70
2020/12/28 03:25:50;;;;;;;0.40;0.40;;;;;;;;;;5085396;28;20483;-70
2020/12/28 03:28:16;;;;;;;0.35;0.35;;;;;;;;;;5086558;28;20340;-70
2020/12/28 03:30:42;;;;;;;0.40;0.40;;;;;;;;;;5085886;28;20383;-70
2020/12/28 03:33:08;;;;;;;0.20;0.20;;;;;;;;;;5086129;28;20060;-70
2020/12/28 03:35:34;;;;;;;0.32;0.32;;;;;;;;;;5085799;28;20031;-70
2020/12/28 03:38:00;;;;;;;0.50;0.50;;;;;;;;;;5102200;28;20046;-70
2020/12/28 03:40:26;;;;;;;0.40;0.40;;;;;;;;;;5111550;28;20027;-70
2020/12/28 03:42:52;;;;;;;0.65;0.30;;;;;;;;;;5110280;28;20031;-70
2020/12/28 03:45:19;;;;;;;0.40;0.25;;;;;;;;;;5110905;28;20050;-70
2020/12/28 03:47:45;;;;;;;0.60;0.40;;;;;;;;;;5109037;28;20031;-70
2020/12/28 03:50:11;;;;;;;0.57;0.43;;;;;;;;;;5111338;28;20023;-70
2020/12/28 03:52:39;;;;;;;0.75;0.38;;;;;;;;;;5110586;28;20096;-70
2020/12/28 03:55:06;;;;;;;0.45;0.30;;;;;;;;;;5110450;28;20027;-70
2020/12/28 03:57:32;;;;;;;0.32;0.30;;;;;;;;;;5110079;28;20031;-70
2020/12/28 03:59:58;;;;;;;0.25;0.25;;;;;;;;;;5110531;28;20050;-70
2020/12/28 04:02:24;;;;;;;1.00;0.43;;;;;;;;;;5110557;28;20527;-70
2020/12/28 04:04:50;;;;;;;1.27;0.28;;;;;;;;;;5109181;28;20102;-70
2020/12/28 04:07:16;;;;;;;0.43;0.30;;;;;;;;;;5109858;28;20027;-70
2020/12/28 04:09:42;;;;;;;0.30;0.30;;;;;;;;;;5110235;28;20516;-70
2020/12/28 04:12:08;;;;;;;0.60;0.35;;;;;;;;;;5110533;28;20031;-70
2020/12/28 04:14:35;;;;;;;0.10;0.10;;;;;;;;;;5110319;28;20267;-70
2020/12/28 04:17:01;;;;;;;0.22;0.17;;;;;;;;;;5109711;28;20024;-70
2020/12/28 04:19:27;;;;;;;0.43;0.22;;;;;;;;;;5110901;28;20081;-70
2020/12/28 04:21:53;;;;;;;0.75;0.35;;;;;;;;;;5109726;28;20079;-70
2020/12/28 04:24:19;;;;;;;0.20;0.20;;;;;;;;;;5109963;28;20027;-70
2020/12/28 04:26:45;;;;;;;0.55;0.40;;;;;;;;;;5109888;28;20031;-70
2020/12/28 04:29:12;;;;;;;0.40;0.28;;;;;;;;;;5110495;28;20096;-70
2020/12/28 04:31:38;;;;;;;0.55;0.55;;;;;;;;;;5110275;28;20520;-70
2020/12/28 04:34:05;;;;;;;0.20;0.20;;;;;;;;;;5109160;28;20465;-70
2020/12/28 04:36:31;;;;;;;0.88;0.20;;;;;;;;;;5109099;28;20529;-70
2020/12/28 04:38:57;;;;;;;0.28;0.22;;;;;;;;;;5089905;28;20035;-70
2020/12/28 04:41:23;;;;;;;0.17;0.17;;;;;;;;;;5090410;28;20474;-70
2020/12/28 04:43:49;;;;;;;0.15;0.15;;;;;;;;;;5088532;28;20020;-70
2020/12/28 04:46:15;;;;;;;0.10;0.10;;;;;;;;;;5088955;28;20106;-70
2020/12/28 04:48:42;;;;;;;0.30;0.30;;;;;;;;;;5088956;28;20028;-70
2020/12/28 04:51:08;;;;;;;0.40;0.20;;;;;;;;;;5089668;28;20012;-70
2020/12/28 04:53:35;;;;;;;0.30;0.20;;;;;;;;;;5088900;28;20102;-70
2020/12/28 04:56:01;;;;;;;0.17;0.17;;;;;;;;;;5088956;28;20089;-70
2020/12/28 04:58:27;;;;;;;0.45;0.45;;;;;;;;;;5089092;28;20028;-70
2020/12/28 05:01:00;;;;;;;0.20;0.20;;;;;;;;;;5088593;28;20043;-70
2020/12/28 05:03:26;;;;;;;0.20;0.10;;;;;;;;;;5088562;28;20024;-70
2020/12/28 05:05:52;;;;;;;0.28;0.28;;;;;;;;;;5086663;28;20051;-70
2020/12/28 05:08:19;;;;;;;0.10;0.10;;;;;;;;;;5089264;28;20069;-70
2020/12/28 05:10:45;;;;;;;0.00;0.00;;;;;;;;;;5088838;28;20024;-70
2020/12/28 05:13:12;;;;;;;0.28;0.28;;;;;;;;;;5088827;28;20123;-70
2020/12/28 05:15:45;;;;;;;0.13;0.13;;;;;;;;;;5088676;28;20476;-70
2020/12/28 05:18:13;;;;;;;0.20;0.20;;;;;;;;;;5088953;28;20120;-70
2020/12/28 05:20:41;;;;;;;0.10;0.10;;;;;;;;;;5088663;28;20062;-70
2020/12/28 05:23:08;;;;;;;0.30;0.30;;;;;;;;;;5088770;28;20028;-70
2020/12/28 05:25:34;;;;;;;0.10;0.10;;;;;;;;;;5088761;28;20022;-70
2020/12/28 05:28:02;;;;;;;0.10;0.10;;;;;;;;;;5087736;28;20090;-70
2020/12/28 05:30:30;;;;;;;0.35;0.35;;;;;;;;;;5089287;28;20028;-70
2020/12/28 05:33:01;;;;;;;0.10;0.10;;;;;;;;;;5088090;28;20364;-70
2020/12/28 05:35:28;;;;;;;0.22;0.10;;;;;;;;;;5087282;28;20089;-70
2020/12/28 05:37:54;;;;;;;0.10;0.10;;;;;;;;;;5099196;28;20028;-70
2020/12/28 05:40:22;;;;;;;0.10;0.10;;;;;;;;;;5109460;28;20281;-70
2020/12/28 05:42:49;;;;;;;0.20;0.20;;;;;;;;;;5108015;28;20028;-70
2020/12/28 05:45:16;;;;;;;0.10;0.10;;;;;;;;;;5108677;28;20023;-70
2020/12/28 05:47:42;;;;;;;0.20;0.20;;;;;;;;;;5108145;28;20030;-70
2020/12/28 05:50:09;;;;;;;0.10;0.10;;;;;;;;;;5108817;28;20022;-70
2020/12/28 05:52:39;;;;;;;0.10;0.10;;;;;;;;;;5109070;28;20043;-70
2020/12/28 05:55:05;;;;;;;0.75;0.10;;;;;;;;;;5108547;28;20153;-70
2020/12/28 05:57:31;;;;;;;0.10;0.10;;;;;;;;;;5108437;28;20027;-70
2020/12/28 05:59:57;;;;;;;0.22;0.20;;;;;;;;;;5107263;28;20394;-70
2020/12/28 06:02:27;;;;;;;0.08;0.08;;;;;;;;;;5108836;28;20027;-70
2020/12/28 06:04:54;;;;;;;0.00;0.00;;;;;;;;;;5106542;28;20058;-70
2020/12/28 06:07:23;;;;;;;1.15;0.20;;;;;;;;;;5107905;28;20084;-70
2020/12/28 06:09:56;;;;;;;0.10;0.10;;;;;;;;;;5108543;28;20507;-70
2020/12/28 06:12:22;;;;;;;0.10;0.10;;;;;;;;;;5108418;28;20088;-70
2020/12/28 06:14:49;;;;;;;0.10;0.10;;;;;;;;;;5107384;28;20103;-70
2020/12/28 06:17:15;;;;;;;0.10;0.10;;;;;;;;;;5108195;28;20050;-70
2020/12/28 06:19:42;;;;;;;0.20;0.20;;;;;;;;;;5107705;28;20401;-70
2020/12/28 06:22:18;;;;;;;0.10;0.10;;;;;;;;;;5108511;28;20023;-70
2020/12/28 06:24:55;;;;;;;0.10;0.10;;;;;;;;;;5107087;28;20027;-70
2020/12/28 06:27:25;;;;;;;0.10;0.10;;;;;;;;;;5107982;28;20440;-70
2020/12/28 06:29:51;;;;;;;0.10;0.10;;;;;;;;;;5107798;28;20509;-70
2020/12/28 06:32:17;;;;;;;0.60;0.20;;;;;;;;;;5107915;28;20193;-70
2020/12/28 06:34:44;;;;;;;0.10;0.10;;;;;;;;;;5106705;28;20020;-70
2020/12/28 06:37:11;;;;;;;0.20;0.08;;;;;;;;;;5102203;28;20013;-70
2020/12/28 06:39:37;;;;;;;0.90;0.10;;;;;;;;;;5087517;28;20020;-70
2020/12/28 06:42:10;;;;;;;0.10;0.10;;;;;;;;;;5087604;28;20413;-70
2020/12/28 06:44:36;;;;;;;0.20;0.20;;;;;;;;;;5086714;28;20576;-70
2020/12/28 06:47:03;;;;;;;0.20;0.20;;;;;;;;;;5086828;28;20028;-70
2020/12/28 06:49:39;;;;;;;0.52;0.10;;;;;;;;;;5087466;28;20032;-70
2020/12/28 06:52:05;;;;;;;0.20;0.10;;;;;;;;;;5081085;28;20147;-70
2020/12/28 06:54:31;;;;;;;0.00;0.00;;;;;;;;;;5067046;28;20059;-70
2020/12/28 06:57:01;;;;;;;1.45;0.68;;;;;;;;;;5081444;28;20036;-70
2020/12/28 06:59:28;;;;;;;1.20;0.30;;;;;;;;;;5087083;28;20085;-70
2020/12/28 07:01:54;;;;;;;0.28;0.20;;;;;;;;;;5082475;28;20458;-69
2020/12/28 07:04:20;;;;;;;0.20;0.20;;;;;;;;;;5078381;28;20020;-69
2020/12/28 07:06:47;;;;;;;0.30;0.20;;;;;;;;;;5064660;28;20035;-69
2020/12/28 07:09:13;;;;;;;0.28;0.28;;;;;;;;;;5066628;28;20119;-69
2020/12/28 07:11:39;;;;;;;0.65;0.35;;;;;;;;;;5065954;28;20024;-70
2020/12/28 07:14:06;;;;;;;0.85;0.25;;;;;;;;;;5077082;28;20036;-69
2020/12/28 07:16:33;;;;;;;1.88;0.45;;;;;;;;;;5084840;28;20025;-69
2020/12/28 07:19:04;;;;;;;0.38;0.20;;;;;;;;;;5085186;28;20030;-70
2020/12/28 07:21:31;;;;;;;0.82;0.30;;;;;;;;;;5086534;28;20051;-69
2020/12/28 07:23:57;;;;;;;0.10;0.10;;;;;;;;;;5097051;28;20028;-70
2020/12/28 07:26:24;;;;;;;0.20;0.20;;;;;;;;;;5075816;28;20426;-69
2020/12/28 07:28:50;;;;;;;0.17;0.17;;;;;;;;;;5064533;28;20430;-70
2020/12/28 07:31:16;;;;;;;5.00;0.43;;;;;;;;;;5063262;28;20107;-70
2020/12/28 07:33:46;;;;;;;0.65;0.20;;;;;;;;;;5072479;28;20044;-71
2020/12/28 07:36:13;;;;;;;0.55;0.20;;;;;;;;;;5077985;28;20036;-71
2020/12/28 07:38:39;;;;;;;0.52;0.22;;;;;;;;;;5073560;28;20028;-69
2020/12/28 07:41:05;;;;;;;0.30;0.28;;;;;;;;;;5079652;28;20055;-71
2020/12/28 07:43:31;;;;;;;0.93;0.25;;;;;;;;;;5086434;28;20051;-71
2020/12/28 07:46:14;;;;;;;0.30;0.30;;;;;;;;;;5087247;28;20031;-71
2020/12/28 07:48:41;;;;;;;0.10;0.10;;;;;;;;;;5083682;28;20430;-71
2020/12/28 07:51:08;;;;;;;0.85;0.63;;;;;;;;;;5071769;28;20021;-72
2020/12/28 07:53:38;;;;;;;1.23;0.30;;;;;;;;;;5083852;28;20032;-71
2020/12/28 07:56:06;;;;;;;0.65;0.28;;;;;;;;;;5071407;28;20513;-72
2020/12/28 07:58:54;;;;;;;0.80;0.75;;;;;;;;;;5082000;28;20066;-72
2020/12/28 08:01:23;;;;;;;0.43;0.25;;;;;;;;;;5077963;28;20077;-72
2020/12/28 08:03:50;;;;;;;0.47;0.47;;;;;;;;;;5081482;28;20488;-72
2020/12/28 08:06:17;;;;;;;0.80;0.43;;;;;;;;;;5086346;28;20034;-70
2020/12/28 08:08:43;;;;;;;0.50;0.30;;;;;;;;;;5065821;28;20029;-69
2020/12/28 08:11:10;;;;;;;0.57;0.30;;;;;;;;;;5068406;28;20024;-69
2020/12/28 08:13:37;;;;;;;0.90;0.65;;;;;;;;;;5066424;28;20032;-69
2020/12/28 08:16:16;;;;;;;0.47;0.30;;;;;;;;;;5072775;28;20051;-70
2020/12/28 08:18:50;;;;;;;0.30;0.22;;;;;;;;;;5083656;28;20020;-70
2020/12/28 08:21:16;;;;;;;0.80;0.40;;;;;;;;;;5085154;28;20058;-69
2020/12/28 08:24:09;;;;;;;0.50;0.20;;;;;;;;;;5087315;28;20028;-69
2020/12/28 08:26:35;;;;;;;0.35;0.35;;;;;;;;;;5077265;28;20533;-69
2020/12/28 08:29:01;;;;;;;0.28;0.28;;;;;;;;;;5080192;28;20476;-69
2020/12/28 08:31:28;;;;;;;0.45;0.20;;;;;;;;;;5076628;28;20024;-69
2020/12/28 08:34:00;;;;;;;0.30;0.30;;;;;;;;;;5069101;28;20345;-69
2020/12/28 08:36:26;;;;;;;1.80;0.40;;;;;;;;;;5066247;28;20020;-69
2020/12/28 08:38:52;;;;;;;1.48;0.22;;;;;;;;;;5081552;28;20455;-69
2020/12/28 08:41:18;;;;;;;0.30;0.30;;;;;;;;;;5084695;28;20082;-69
2020/12/28 08:43:48;;;;;;;2.05;0.30;;;;;;;;;;5075034;28;20025;-69
2020/12/28 08:46:14;;;;;;;0.77;0.70;;;;;;;;;;5083542;28;20027;-70
2020/12/28 08:48:43;;;;;;;0.28;0.25;;;;;;;;;;5080253;28;20031;-70
2020/12/28 08:51:19;;;;;;;0.38;0.38;;;;;;;;;;5085969;28;20028;-70
2020/12/28 08:53:49;;;;;;;0.50;0.40;;;;;;;;;;5068270;28;20029;-70
2020/12/28 08:56:17;;;;;;;0.40;0.22;;;;;;;;;;5070193;28;20127;-70
2020/12/28 08:58:43;;;;;;;0.65;0.65;;;;;;;;;;5072470;28;20085;-70
2020/12/28 09:01:09;;;;;;;0.70;0.60;;;;;;;;;;5076201;28;20264;-73
2020/12/28 09:03:35;;;;;;;0.45;0.45;;;;;;;;;;5077395;28;20565;-70
2020/12/28 09:06:01;;;;;;;0.98;0.40;;;;;;;;;;5077458;28;20498;-70
2020/12/28 09:08:28;;;;;;;0.75;0.60;;;;;;;;;;5084599;28;20028;-70
2020/12/28 09:10:54;;;;;;;0.90;0.50;;;;;;;;;;5076664;28;20502;-70
2020/12/28 09:13:20;;;;;;;1.15;0.57;;;;;;;;;;5070299;28;20446;-70
2020/12/28 09:15:46;;;;;;;0.60;0.57;;;;;;;;;;5073055;28;20028;-69
2020/12/28 09:18:12;;;;;;;0.40;0.40;;;;;;;;;;5091089;28;20055;-70
2020/12/28 09:20:38;;;;;;;0.85;0.85;;;;;;;;;;5090751;28;20111;-70
2020/12/28 09:23:04;;;;;;;2.25;1.20;;;;;;;;;;5090713;28;20024;-70
2020/12/28 09:25:31;;;;;;;2.83;1.27;;;;;;;;;;5091206;28;20028;-70
2020/12/28 09:27:57;;;;;;;0.73;0.73;;;;;;;;;;5090017;28;20079;-72
2020/12/28 09:30:23;;;;;;;1.20;0.98;;;;;;;;;;5091100;28;20043;-71
2020/12/28 09:32:50;;;;;;;1.08;0.98;;;;;;;;;;5089224;28;20036;-69
2020/12/28 09:35:16;;;;;;;2.13;0.80;;;;;;;;;;5090004;28;20036;-69
2020/12/28 09:37:43;;;;;;;2.65;0.68;;;;;;;;;;5090133;28;20052;-69
2020/12/28 09:40:09;;;;;;;1.30;1.20;;;;;;;;;;5091061;28;20391;-69
2020/12/28 09:42:35;;;;;;;0.77;0.77;;;;;;;;;;5090394;28;20028;-72
2020/12/28 09:45:01;;;;;;;1.60;0.98;;;;;;;;;;5089470;28;20166;-69
2020/12/28 09:47:27;;;;;;;1.42;1.30;;;;;;;;;;5090625;28;20032;-69
2020/12/28 09:49:53;;;;;;;1.85;0.80;;;;;;;;;;5091576;28;20051;-69
2020/12/28 09:52:19;;;;;;;1.23;1.13;;;;;;;;;;5090424;28;20156;-69
2020/12/28 09:54:45;;;;;;;1.00;0.85;;;;;;;;;;5086317;28;20076;-70
2020/12/28 09:57:13;;;;;;;1.45;1.25;;;;;;;;;;5081348;28;20046;-72
2020/12/28 09:59:39;;;;;;;0.70;0.70;;;;;;;;;;5082733;28;20364;-69
2020/12/28 10:02:06;;;;;;;3.88;1.67;;;;;;;;;;5090039;28;20100;-69
2020/12/28 10:04:32;;;;;;;1.70;1.60;;;;;;;;;;5089877;28;20032;-69
2020/12/28 10:06:58;;;;;;;1.50;0.80;;;;;;;;;;5087999;28;20040;-69
2020/12/28 10:09:24;;;;;;;2.13;0.88;;;;;;;;;;5090189;28;20157;-69
2020/12/28 10:11:51;;;;;;;0.90;0.80;;;;;;;;;;5087010;28;22701;-69
2020/12/28 10:14:17;;;;;;;0.98;0.73;;;;;;;;;;5080342;28;20479;-69
2020/12/28 10:16:43;;;;;;;1.23;1.00;;;;;;;;;;5081270;28;20020;-69
2020/12/28 10:19:09;;;;;;;0.80;0.80;;;;;;;;;;5081521;28;20017;-70
2020/12/28 10:21:35;;;;;;;1.63;0.90;;;;;;;;;;5081532;28;20136;-69
2020/12/28 10:24:03;;;;;;;0.85;0.85;;;;;;;;;;5080423;28;20027;-72
2020/12/28 10:26:29;;;;;;;1.02;1.02;;;;;;;;;;5085865;28;20039;-69
2020/12/28 10:28:56;;;;;;;1.08;0.93;;;;;;;;;;5085865;28;20789;-69
2020/12/28 10:31:22;;;;;;;0.95;0.77;;;;;;;;;;5089358;28;20028;-70
2020/12/28 10:33:49;;;;;;;1.10;0.77;;;;;;;;;;5087416;28;20095;-69
2020/12/28 10:36:24;;;;;;;1.00;0.90;;;;;;;;;;5083090;28;20101;-69
2020/12/28 10:38:51;;;;;;;0.77;0.77;;;;;;;;;;5087868;28;20111;-69
2020/12/28 10:41:23;;;;;;;0.77;0.77;;;;;;;;;;5089303;28;20024;-69
2020/12/28 10:43:49;;;;;;;0.70;0.70;;;;;;;;;;5087422;28;20601;-69
2020/12/28 10:46:15;;;;;;;1.08;0.68;;;;;;;;;;5088545;28;20463;-69
2020/12/28 10:48:41;;;;;;;0.75;0.75;;;;;;;;;;5087504;28;20028;-70
2020/12/28 10:51:10;;;;;;;0.70;0.70;;;;;;;;;;5085777;28;20535;-71
2020/12/28 10:53:36;;;;;;;2.53;0.63;;;;;;;;;;5088756;28;20541;-69
2020/12/28 10:56:02;;;;;;;2.85;0.60;;;;;;;;;;5084437;28;20038;-69
2020/12/28 10:58:28;;;;;;;1.20;0.52;;;;;;;;;;5070147;28;20390;-69
2020/12/28 11:00:55;;;;;;;0.82;0.60;;;;;;;;;;5087993;28;22088;-69
2020/12/28 11:03:21;;;;;;;0.77;0.55;;;;;;;;;;5089057;28;20545;-69
2020/12/28 11:05:47;;;;;;;0.85;0.85;;;;;;;;;;5102197;28;20035;-69
2020/12/28 11:08:13;;;;;;;0.93;0.60;;;;;;;;;;5076900;28;20089;-69
2020/12/28 11:10:40;;;;;;;1.13;1.05;;;;;;;;;;5070016;28;20078;-69
2020/12/28 11:13:07;;;;;;;0.60;0.60;;;;;;;;;;5087793;28;20449;-69
2020/12/28 11:15:33;;;;;;;0.60;0.50;;;;;;;;;;5094576;28;20023;-69
2020/12/28 11:17:59;;;;;;;1.85;0.85;;;;;;;;;;5093754;28;20118;-69
2020/12/28 11:20:26;;;;;;;0.73;0.60;;;;;;;;;;5089657;28;20028;-69
2020/12/28 11:22:52;;;;;;;0.57;0.50;;;;;;;;;;5070608;28;20590;-70
2020/12/28 11:25:18;;;;;;;0.95;0.80;;;;;;;;;;5087597;28;20032;-70
2020/12/28 11:27:44;;;;;;;0.80;0.60;;;;;;;;;;5082671;28;20028;-69
2020/12/28 11:30:11;;;;;;;1.13;0.52;;;;;;;;;;5067552;28;20413;-69
2020/12/28 11:32:37;;;;;;;0.80;0.80;;;;;;;;;;5073023;28;20040;-70
2020/12/28 11:35:04;;;;;;;2.78;0.80;;;;;;;;;;5071176;28;20036;-69
2020/12/28 11:37:31;;;;;;;0.77;0.75;;;;;;;;;;5088634;28;20028;-69
2020/12/28 11:39:57;;;;;;;0.80;0.60;;;;;;;;;;5084367;28;20093;-69
2020/12/28 11:42:23;;;;;;;0.75;0.75;;;;;;;;;;5084672;28;20542;-69
2020/12/28 11:44:51;;;;;;;0.45;0.45;;;;;;;;;;5082842;28;20441;-69
2020/12/28 11:47:17;;;;;;;0.70;0.70;;;;;;;;;;5074101;28;20507;-69
2020/12/28 11:49:43;;;;;;;0.50;0.50;;;;;;;;;;5082607;28;20028;-69
2020/12/28 11:52:09;;;;;;;0.88;0.88;;;;;;;;;;5088775;28;20048;-69
2020/12/28 11:54:35;;;;;;;1.15;0.75;;;;;;;;;;5088529;28;20467;-69
2020/12/28 11:57:01;;;;;;;5.70;1.40;;;;;;;;;;5088875;28;20425;-69
2020/12/28 11:59:27;;;;;;;1.65;1.20;;;;;;;;;;5090652;28;20025;-69
2020/12/28 12:01:53;;;;;;;1.65;0.82;;;;;;;;;;5080868;28;20020;-69
2020/12/28 12:04:47;;;;;;;3.22;1.45;;;;;;;;;;5091469;28;20024;-69
2020/12/28 12:07:05;;;;;;;2.63;0.82;;;;;;;;;;5079124;28;20041;-69
2020/12/28 12:09:31;;;;;;;1.00;0.90;;;;;;;;;;5081238;28;20020;-69
2020/12/28 12:11:58;;;;;;;0.65;0.60;;;;;;;;;;5078442;28;20051;-69
2020/12/28 12:14:24;;;;;;;1.70;0.88;;;;;;;;;;5081587;28;20032;-69
2020/12/28 12:16:50;;;;;;;1.45;0.77;;;;;;;;;;5080157;28;20032;-70
2020/12/28 12:19:16;;;;;;;1.52;0.57;;;;;;;;;;5080709;28;20028;-73
2020/12/28 12:21:42;;;;;;;0.90;0.90;;;;;;;;;;5077723;28;20055;-69
2020/12/28 12:24:08;;;;;;;2.38;0.70;;;;;;;;;;5072982;28;20032;-69
2020/12/28 12:26:35;;;;;;;0.95;0.68;;;;;;;;;;5088115;28;20508;-69
2020/12/28 12:29:01;;;;;;;1.67;1.23;;;;;;;;;;5080628;28;20566;-69
2020/12/28 12:31:27;;;;;;;1.45;0.80;;;;;;;;;;5075912;28;20025;-69
2020/12/28 12:33:53;;;;;;;3.65;1.52;;;;;;;;;;5069683;28;20037;-69
2020/12/28 12:36:19;;;;;;;0.95;0.75;;;;;;;;;;5068970;28;20039;-69
2020/12/28 12:38:45;;;;;;;0.93;0.93;;;;;;;;;;5085352;28;20032;-69
2020/12/28 12:41:19;;;;;;;0.80;0.80;;;;;;;;;;5088314;28;20034;-69
2020/12/28 12:43:45;;;;;;;2.97;1.70;;;;;;;;;;5088588;28;20031;-69
2020/12/28 12:46:15;;;;;;;0.70;0.70;;;;;;;;;;5091087;28;20090;-69
2020/12/28 12:48:42;;;;;;;1.35;1.05;;;;;;;;;;5091420;28;20028;-70
2020/12/28 12:51:08;;;;;;;1.45;1.00;;;;;;;;;;5092166;28;20028;-69
2020/12/28 12:53:34;;;;;;;2.20;1.10;;;;;;;;;;5092205;28;20040;-69
2020/12/28 12:56:00;;;;;;;1.85;1.48;;;;;;;;;;5091084;28;20071;-70
2020/12/28 12:58:27;;;;;;;1.33;0.90;;;;;;;;;;5085304;28;20415;-70
2020/12/28 13:00:53;;;;;;;1.25;0.90;;;;;;;;;;5089004;28;20024;-72
2020/12/28 13:03:19;;;;;;;1.45;1.20;;;;;;;;;;5083360;28;20027;-69
2020/12/28 13:05:45;;;;;;;5.13;1.00;;;;;;;;;;5083031;28;20016;-69
2020/12/28 13:08:11;;;;;;;1.50;0.80;;;;;;;;;;5090523;28;20162;-69
2020/12/28 13:10:37;;;;;;;1.25;0.82;;;;;;;;;;5091017;28;20115;-69
2020/12/28 13:13:03;;;;;;;1.33;0.95;;;;;;;;;;5090141;28;20036;-69
2020/12/28 13:15:30;;;;;;;2.78;1.55;;;;;;;;;;5091497;28;20501;-69
2020/12/28 13:17:56;;;;;;;4.72;1.35;;;;;;;;;;5089341;28;20035;-69
2020/12/28 13:20:23;;;;;;;1.42;1.20;;;;;;;;;;5090636;28;20024;-69
2020/12/28 13:22:49;;;;;;;3.60;1.80;;;;;;;;;;5075486;28;20035;-69
2020/12/28 13:25:15;;;;;;;1.23;1.08;;;;;;;;;;5089780;28;20401;-69
2020/12/28 13:27:41;;;;;;;2.17;1.38;;;;;;;;;;5089334;28;20024;-69
2020/12/28 13:30:07;;;;;;;1.65;1.50;;;;;;;;;;5090205;28;20032;-69
2020/12/28 13:32:33;;;;;;;1.27;0.95;;;;;;;;;;5089945;28;20110;-69
2020/12/28 13:35:00;;;;;;;1.30;1.20;;;;;;;;;;5089630;28;20121;-69
2020/12/28 13:37:26;;;;;;;1.10;1.00;;;;;;;;;;5090983;28;20123;-69
2020/12/28 13:39:52;;;;;;;3.47;1.00;;;;;;;;;;5090507;28;20493;-69
2020/12/28 13:42:18;;;;;;;4.10;1.50;;;;;;;;;;5091217;28;20022;-69
2020/12/28 13:44:44;;;;;;;2.42;0.93;;;;;;;;;;5090066;28;20501;-70
2020/12/28 13:47:10;;;;;;;1.80;1.40;;;;;;;;;;5090839;28;20470;-69
2020/12/28 13:49:36;;;;;;;1.35;1.25;;;;;;;;;;5079867;28;20075;-70
2020/12/28 13:52:02;;;;;;;1.38;0.90;;;;;;;;;;5079158;28;20336;-69
2020/12/28 13:54:28;;;;;;;1.05;0.85;;;;;;;;;;5052446;23;20061;-85
2020/12/28 13:56:55;;;;;;;0.88;0.75;;;;;;;;;;5015765;28;20022;-86
2020/12/28 13:59:22;;;;;;;7.25;1.23;;;;;;;;;;5015780;28;20044;-86
2020/12/28 14:01:48;;;;;;;1.02;1.02;;;;;;;;;;5024702;28;20504;-86
2020/12/28 14:04:14;;;;;;;1.85;0.90;;;;;;;;;;4994225;28;20478;-85
2020/12/28 14:06:40;;;;;;;1.02;0.90;;;;;;;;;;4988877;28;20045;-84
2020/12/28 14:09:07;;;;;;;2.20;1.17;;;;;;;;;;5014784;28;20049;-85
2020/12/28 14:11:33;;;;;;;2.15;1.67;;;;;;;;;;5015081;28;20026;-85
2020/12/28 14:13:59;;;;;;;1.05;0.90;;;;;;;;;;5008002;28;20065;-85
2020/12/28 14:16:28;;;;;;;3.25;1.00;;;;;;;;;;5016124;28;20021;-85
2020/12/28 14:18:54;;;;;;;1.58;1.13;;;;;;;;;;5015477;28;20561;-86
2020/12/28 14:21:20;;;;;;;1.08;0.98;;;;;;;;;;5016710;28;20030;-84
2020/12/28 14:23:46;;;;;;;0.85;0.85;;;;;;;;;;5011951;28;20037;-83
2020/12/28 14:26:13;;;;;;;1.58;1.08;;;;;;;;;;5013553;28;20029;-85
2020/12/28 14:28:40;;;;;;;1.90;1.25;;;;;;;;;;5034601;28;20103;-85
2020/12/28 14:31:10;;;;;;;1.20;1.08;;;;;;;;;;5010673;28;20022;-84
2020/12/28 14:33:37;;;;;;;1.33;0.90;;;;;;;;;;5026318;28;20562;-84
2020/12/28 14:36:07;;;;;;;1.35;1.25;;;;;;;;;;5029560;28;20443;-85
2020/12/28 14:38:33;;;;;;;0.93;0.77;;;;;;;;;;5031038;28;20079;-84
2020/12/28 14:40:59;;;;;;;4.13;1.77;;;;;;;;;;5032353;28;20497;-85